Time;durP1;ratioP1;P1;durP2;ratioP2;P2;SDS_P1;SDS_P2;PMS_P1;PMS_P2;Temp;Humidity;BMP_temperature;BMP_pressure;BME280_temperature;BME280_humidity;BME280_pressure;Samples;Min_cycle;Max_cycle;Signal;HPM_P1;HPM_P2
2022/04/22 00:01:01;;;;;;;;;;;;;;;9.78;48.79;91403.47;2055850;70;20176;-68
2022/04/22 00:03:27;;;;;;;;;;;;;;;9.97;47.82;91402.88;2055683;70;20130;-66
2022/04/22 00:05:52;;;;;;;;;;;;;;;9.99;48.62;91400.16;2068552;69;20113;-66
2022/04/22 00:08:18;;;;;;;;;;;;;;;10.15;46.79;91389.56;2055583;69;20053;-69
2022/04/22 00:13:28;;;;;;;;;;;;;;;9.77;47.93;91391.50;2055525;70;20058;-69
2022/04/22 00:15:53;;;;;;;;;;;;;;;9.68;48.12;91386.91;2055698;70;20062;-68
2022/04/22 00:18:19;;;;;;;;;;;;;;;9.75;47.83;91387.88;2068640;69;20141;-66
2022/04/22 00:20:45;;;;;;;;;;;;;;;9.74;48.05;91378.00;2068652;69;20053;-67
2022/04/22 00:23:10;;;;;;;;;;;;;;;9.74;48.16;91381.53;2055540;69;20050;-68
2022/04/22 00:25:35;;;;;;;;;;;;;;;9.57;48.92;91374.47;2068648;69;20506;-70
2022/04/22 00:28:02;;;;;;;;;;;;;;;9.51;48.62;91376.31;2068494;69;20065;-70
2022/04/22 00:30:29;;;;;;;;;;;;;;;9.64;48.15;91378.28;2068427;69;20050;-70
2022/04/22 00:32:54;;;;;;;;;;;;;;;9.52;49.36;91374.94;2068440;69;20117;-70
2022/04/22 00:35:20;;;;;;;;;;;;;;;9.40;50.20;91367.47;2055550;70;20118;-67
2022/04/22 00:37:47;;;;;;;;;;;;;;;9.56;48.82;91364.63;2055467;70;20494;-68
2022/04/22 00:40:13;;;;;;;;;;;;;;;9.60;48.52;91361.25;2068648;69;20433;-68
2022/04/22 00:42:40;;;;;;;;;;;;;;;9.39;49.00;91357.59;2055645;70;20053;-67
2022/04/22 00:45:05;;;;;;;;;;;;;;;9.48;48.74;91358.63;2068614;69;20058;-68
2022/04/22 00:47:31;;;;;;;;;;;;;;;9.34;50.04;91355.22;2055417;70;20047;-70
2022/04/22 00:49:56;;;;;;;;;;;;;;;9.53;48.52;91349.06;2067787;69;20209;-68
2022/04/22 00:52:23;;;;;;;;;;;;;;;9.42;49.22;91350.69;2068083;69;20046;-69
2022/04/22 00:54:48;;;;;;;;;;;;;;;9.25;49.89;91345.72;2055340;70;20077;-69
2022/04/22 00:57:15;;;;;;;;;;;;;;;9.22;49.50;91344.19;2067755;69;20499;-67
2022/04/22 00:59:40;;;;;;;;;;;;;;;9.22;49.66;91335.78;2054771;70;20066;-68
2022/04/22 01:02:06;;;;;;;;;;;;;;;9.41;48.45;91335.19;2054927;70;20146;-71
2022/04/22 01:09:59;;;;;;;;;;;;;;;9.06;49.76;91323.81;2054377;70;20061;-68
2022/04/22 01:12:26;;;;;;;;;;;;;;;9.11;49.43;91328.97;2067191;69;20147;-67
2022/04/22 01:14:52;;;;;;;;;;;;;;;9.20;49.85;91330.06;2055541;70;20058;-68
2022/04/22 01:17:19;;;;;;;;;;;;;;;9.18;50.11;91321.56;2055365;70;20042;-68
2022/04/22 01:19:44;;;;;;;;;;;;;;;9.17;49.36;91322.91;2055479;70;20098;-69
2022/04/22 01:22:10;;;;;;;;;;;;;;;9.03;50.09;91323.03;2055291;69;20042;-68
2022/04/22 01:24:36;;;;;;;;;;;;;;;8.83;51.02;91319.28;2055492;69;20491;-67
2022/04/22 01:27:03;;;;;;;;;;;;;;;9.32;47.83;91316.56;2065788;69;20070;-68
2022/04/22 01:29:28;;;;;;;;;;;;;;;8.96;50.95;91309.34;2055433;70;20050;-67
2022/04/22 01:31:54;;;;;;;;;;;;;;;9.10;49.05;91307.88;2055473;70;20533;-68
2022/04/22 01:34:19;;;;;;;;;;;;;;;9.26;49.84;91309.97;2055269;70;20057;-67
2022/04/22 01:36:46;;;;;;;;;;;;;;;9.14;49.96;91304.53;2055366;70;20058;-71
2022/04/22 01:39:11;;;;;;;;;;;;;;;9.14;49.66;91310.16;2054379;70;20050;-69
2022/04/22 01:41:37;;;;;;;;;;;;;;;9.40;48.38;91307.75;2054924;69;20053;-69
2022/04/22 01:44:03;;;;;;;;;;;;;;;9.13;49.28;91298.19;2055003;70;20053;-68
2022/04/22 01:46:28;;;;;;;;;;;;;;;8.98;50.40;91296.13;2067735;69;20070;-68
2022/04/22 01:48:54;;;;;;;;;;;;;;;9.12;49.85;91282.00;2055566;70;20101;-67
2022/04/22 01:51:19;;;;;;;;;;;;;;;9.02;49.63;91292.75;2055519;70;20134;-69
2022/04/22 01:53:45;;;;;;;;;;;;;;;8.72;51.09;91292.16;2055380;70;20062;-68
2022/04/22 01:56:10;;;;;;;;;;;;;;;8.86;49.95;91287.88;2068472;69;20513;-67
2022/04/22 01:58:36;;;;;;;;;;;;;;;9.02;49.22;91285.06;2055314;70;20057;-67
2022/04/22 02:01:01;;;;;;;;;;;;;;;8.85;49.79;91289.25;2055505;70;20149;-67
2022/04/22 02:03:26;;;;;;;;;;;;;;;8.79;50.54;91282.63;2055502;70;20155;-67
2022/04/22 02:05:52;;;;;;;;;;;;;;;8.96;49.76;91287.59;2065490;69;20054;-69
2022/04/22 02:08:19;;;;;;;;;;;;;;;8.94;49.23;91286.81;2055348;70;20057;-69
2022/04/22 02:10:46;;;;;;;;;;;;;;;8.76;50.51;91284.66;2055444;70;20080;-69
2022/04/22 02:13:11;;;;;;;;;;;;;;;8.93;48.41;91283.25;2071079;69;20139;-68
2022/04/22 02:15:37;;;;;;;;;;;;;;;8.70;51.52;91286.44;2071536;69;20148;-69
2022/04/22 02:18:03;;;;;;;;;;;;;;;8.50;52.35;91280.66;2070951;69;20059;-69
2022/04/22 02:20:28;;;;;;;;;;;;;;;8.57;51.50;91283.09;2070844;69;20068;-70
2022/04/22 02:22:54;;;;;;;;;;;;;;;8.57;51.54;91288.00;2071667;69;20591;-69
2022/04/22 02:25:20;;;;;;;;;;;;;;;8.49;51.82;91276.41;2072065;69;20056;-68
2022/04/22 02:30:30;;;;;;;;;;;;;;;8.42;51.32;91271.84;2072833;69;20052;-68
2022/04/22 02:32:56;;;;;;;;;;;;;;;8.50;50.56;91272.22;2072830;69;20514;-69
2022/04/22 02:35:21;;;;;;;;;;;;;;;8.50;51.22;91269.44;2072974;69;20076;-69
2022/04/22 02:37:47;;;;;;;;;;;;;;;8.48;51.00;91266.53;2072717;69;20048;-69
2022/04/22 02:45:26;;;;;;;;;;;;;;;8.46;51.16;91269.25;2072813;69;20061;-68
2022/04/22 02:45:43;;;;;;;;;;;;;;;8.48;51.53;91261.66;2072820;69;20041;-70
2022/04/22 02:48:09;;;;;;;;;;;;;;;8.40;51.65;91261.28;2072311;69;20114;-68
2022/04/22 02:50:34;;;;;;;;;;;;;;;8.34;51.45;91250.50;2072758;69;20060;-68
2022/04/22 02:52:59;;;;;;;;;;;;;;;8.37;51.51;91256.94;2072792;69;20095;-68
2022/04/22 02:55:25;;;;;;;;;;;;;;;8.24;52.12;91255.63;2072911;69;20051;-69
2022/04/22 02:57:51;;;;;;;;;;;;;;;8.27;52.60;91243.16;2072901;69;20060;-69
2022/04/22 03:00:17;;;;;;;;;;;;;;;8.31;53.10;91245.41;2072733;69;20055;-69
2022/04/22 03:02:42;;;;;;;;;;;;;;;8.30;51.32;91241.91;2072753;69;20045;-69
2022/04/22 03:05:09;;;;;;;;;;;;;;;8.26;50.54;91224.16;2072798;69;20047;-68
2022/04/22 03:07:34;;;;;;;;;;;;;;;8.24;51.78;91236.00;2072798;69;20421;-69
2022/04/22 03:10:00;;;;;;;;;;;;;;;8.16;52.91;91221.63;2072749;69;20056;-69
2022/04/22 03:12:25;;;;;;;;;;;;;;;8.22;52.57;91216.28;2072729;69;20111;-69
2022/04/22 03:14:51;;;;;;;;;;;;;;;8.13;51.98;91209.59;2072183;69;20052;-69
2022/04/22 03:17:16;;;;;;;;;;;;;;;7.96;52.98;91215.81;2072741;69;20480;-68
2022/04/22 03:19:43;;;;;;;;;;;;;;;8.04;52.13;91204.97;2072805;69;20045;-68
2022/04/22 03:22:08;;;;;;;;;;;;;;;7.96;52.67;91206.66;2072705;69;20044;-68
2022/04/22 03:24:34;;;;;;;;;;;;;;;8.00;52.23;91204.06;2072636;69;20088;-69
2022/04/22 03:26:59;;;;;;;;;;;;;;;8.04;52.85;91198.66;2072721;69;20473;-69
2022/04/22 03:29:25;;;;;;;;;;;;;;;7.87;53.16;91203.50;2072731;69;20060;-70
2022/04/22 03:31:50;;;;;;;;;;;;;;;7.91;53.50;91202.97;2071987;69;20048;-69
2022/04/22 03:34:15;;;;;;;;;;;;;;;7.80;53.17;91198.97;2072237;69;20569;-69
2022/04/22 03:36:41;;;;;;;;;;;;;;;7.62;53.95;91198.84;2072243;69;20504;-69
2022/04/22 03:39:07;;;;;;;;;;;;;;;7.71;53.35;91197.16;2071935;69;20057;-69
2022/04/22 03:41:33;;;;;;;;;;;;;;;7.70;53.58;91194.97;2072116;69;20048;-69
2022/04/22 03:43:59;;;;;;;;;;;;;;;7.69;53.55;91185.84;2072121;69;20072;-69
2022/04/22 03:46:25;;;;;;;;;;;;;;;7.71;54.03;91177.53;2072159;69;20069;-68
2022/04/22 03:48:50;;;;;;;;;;;;;;;7.71;53.75;91188.75;2072157;69;20065;-69
2022/04/22 03:51:15;;;;;;;;;;;;;;;7.76;52.97;91181.97;2072093;69;20048;-69
2022/04/22 03:53:41;;;;;;;;;;;;;;;7.80;52.65;91175.84;2071985;69;20152;-68
2022/04/22 03:58:50;;;;;;;;;;;;;;;7.90;52.87;91179.09;2072144;69;20393;-68
2022/04/22 04:01:16;;;;;;;;;;;;;;;7.61;54.61;91177.78;2071980;69;20052;-70
2022/04/22 04:03:41;;;;;;;;;;;;;;;7.69;53.84;91171.81;2072026;69;20056;-70
2022/04/22 04:06:07;;;;;;;;;;;;;;;7.71;53.60;91171.22;2072011;69;20592;-70
2022/04/22 04:08:32;;;;;;;;;;;;;;;7.50;54.52;91173.06;2071973;69;20393;-69
2022/04/22 04:16:26;;;;;;;;;;;;;;;7.59;53.47;91174.16;2055985;70;20050;-69
2022/04/22 04:18:52;;;;;;;;;;;;;;;7.72;53.98;91172.66;2055863;70;20057;-70
2022/04/22 04:24:04;;;;;;;;;;;;;;;7.93;52.76;91165.91;2055806;70;20137;-68
2022/04/22 04:26:29;;;;;;;;;;;;;;;7.74;52.71;91169.94;2068781;69;20142;-70
2022/04/22 04:28:55;;;;;;;;;;;;;;;7.78;53.34;91156.84;2055858;70;20055;-69
2022/04/22 04:31:20;;;;;;;;;;;;;;;8.14;49.08;91159.84;2055752;70;20137;-68
2022/04/22 04:33:46;;;;;;;;;;;;;;;8.02;51.49;91159.34;2055727;70;20103;-68
2022/04/22 04:36:12;;;;;;;;;;;;;;;7.34;54.97;91167.41;2055766;70;20089;-69
2022/04/22 04:38:38;;;;;;;;;;;;;;;7.72;54.15;91173.38;2055696;70;20470;-68
2022/04/22 04:41:05;;;;;;;;;;;;;;;7.64;54.23;91165.31;2055750;70;20141;-68
2022/04/22 04:43:32;;;;;;;;;;;;;;;7.75;53.97;91160.91;2055560;69;20062;-68
2022/04/22 04:45:58;;;;;;;;;;;;;;;7.90;53.55;91157.41;2055681;70;20057;-68
2022/04/22 04:48:23;;;;;;;;;;;;;;;7.39;55.72;91171.84;2055809;70;20063;-70
2022/04/22 04:50:51;;;;;;;;;;;;;;;7.76;53.98;91170.78;2055699;70;20058;-71
2022/04/22 04:53:17;;;;;;;;;;;;;;;7.93;52.83;91174.31;2055581;70;20415;-70
2022/04/22 04:55:42;;;;;;;;;;;;;;;7.87;53.62;91172.66;2055693;70;20050;-69
2022/04/22 04:58:08;;;;;;;;;;;;;;;7.80;54.24;91173.75;2055688;69;20053;-70
2022/04/22 05:00:34;;;;;;;;;;;;;;;7.96;52.21;91173.78;2055812;70;20137;-70
2022/04/22 05:02:59;;;;;;;;;;;;;;;7.94;53.63;91175.78;2055696;70;20046;-68
2022/04/22 05:05:25;;;;;;;;;;;;;;;7.99;54.14;91171.78;2055775;70;20471;-69
2022/04/22 05:07:57;;;;;;;;;;;;;;;7.94;54.40;91172.97;2055634;70;20058;-67
2022/04/22 05:10:26;;;;;;;;;;;;;;;8.02;54.04;91164.94;2055709;70;20081;-68
2022/04/22 05:12:52;;;;;;;;;;;;;;;8.04;53.44;91170.63;2055719;70;20057;-67
2022/04/22 05:15:18;;;;;;;;;;;;;;;8.11;52.83;91173.06;2055648;70;20050;-68
2022/04/22 05:17:44;;;;;;;;;;;;;;;8.14;52.70;91171.06;2055724;70;20504;-68
2022/04/22 05:20:10;;;;;;;;;;;;;;;8.23;53.51;91172.88;2055741;70;20055;-68
2022/04/22 05:22:36;;;;;;;;;;;;;;;8.43;52.89;91175.91;2055592;69;20065;-68
2022/04/22 05:25:02;;;;;;;;;;;;;;;8.06;53.61;91173.50;2055512;70;20442;-69
2022/04/22 05:27:27;;;;;;;;;;;;;;;8.35;53.21;91175.50;2055575;70;20046;-69
2022/04/22 05:32:37;;;;;;;;;;;;;;;8.32;54.74;91177.50;2055616;70;20051;-70
2022/04/22 05:35:04;;;;;;;;;;;;;;;8.46;53.05;91173.91;2055727;70;20047;-69
2022/04/22 05:37:42;;;;;;;;;;;;;;;8.64;52.89;91178.22;2055585;69;20053;-70
2022/04/22 05:40:08;;;;;;;;;;;;;;;8.82;51.69;91172.66;2055458;70;20058;-68
2022/04/22 05:42:34;;;;;;;;;;;;;;;8.76;52.01;91166.09;2055567;70;20474;-69
2022/04/22 05:44:59;;;;;;;;;;;;;;;8.59;52.58;91175.88;2068610;69;20050;-70
2022/04/22 05:47:25;;;;;;;;;;;;;;;8.89;51.06;91168.06;2055656;70;20054;-70
2022/04/22 05:49:50;;;;;;;;;;;;;;;9.04;51.98;91167.28;2055559;69;20410;-69
2022/04/22 05:52:16;;;;;;;;;;;;;;;8.72;52.85;91163.09;2068708;69;20178;-69
2022/04/22 05:54:41;;;;;;;;;;;;;;;9.20;52.13;91160.88;2055428;70;20055;-72
2022/04/22 05:57:07;;;;;;;;;;;;;;;8.72;53.72;91158.22;2055579;69;20070;-70
2022/04/22 05:59:32;;;;;;;;;;;;;;;9.00;52.47;91152.34;2055603;70;20053;-70
2022/04/22 06:01:57;;;;;;;;;;;;;;;9.14;51.10;91161.34;2055580;70;20484;-70
2022/04/22 06:04:23;;;;;;;;;;;;;;;9.26;52.47;91164.66;2055693;70;20145;-71
2022/04/22 06:06:48;;;;;;;;;;;;;;;9.33;52.68;91157.91;2055765;70;20050;-70
2022/04/22 06:11:58;;;;;;;;;;;;;;;9.65;50.94;91146.53;2055434;70;20050;-70
2022/04/22 06:14:23;;;;;;;;;;;;;;;9.38;51.66;91142.69;2055426;70;20058;-70
2022/04/22 06:16:49;;;;;;;;;;;;;;;9.05;53.65;91149.06;2055630;70;20137;-70
2022/04/22 06:19:14;;;;;;;;;;;;;;;9.53;52.44;91158.03;2055484;70;20082;-70
2022/04/22 06:21:40;;;;;;;;;;;;;;;9.80;50.00;91151.34;2055483;69;20058;-71
2022/04/22 06:24:05;;;;;;;;;;;;;;;9.96;49.90;91154.06;2068359;69;20042;-71
2022/04/22 06:26:31;;;;;;;;;;;;;;;9.76;49.84;91139.97;2055516;70;20055;-70
2022/04/22 06:28:56;;;;;;;;;;;;;;;9.87;50.02;91138.97;2055504;70;20231;-68
2022/04/22 06:31:22;;;;;;;;;;;;;;;9.29;53.53;91137.38;2055574;70;20649;-69
2022/04/22 06:33:48;;;;;;;;;;;;;;;9.82;52.73;91134.56;2055446;70;20137;-69
2022/04/22 06:36:14;;;;;;;;;;;;;;;9.93;52.86;91124.41;2055440;70;20141;-69
2022/04/22 06:38:40;;;;;;;;;;;;;;;10.15;51.53;91118.91;2055301;70;20096;-69
2022/04/22 06:46:34;;;;;;;;;;;;;;;10.47;48.50;91116.59;2055450;70;20050;-69
2022/04/22 06:49:00;;;;;;;;;;;;;;;10.44;49.49;91117.88;2055435;70;20111;-70
2022/04/22 06:51:25;;;;;;;;;;;;;;;10.47;49.51;91110.94;2068526;69;20129;-71
2022/04/22 06:53:52;;;;;;;;;;;;;;;10.72;46.22;91114.63;2055404;70;20054;-70
2022/04/22 06:56:21;;;;;;;;;;;;;;;10.99;47.29;91107.78;2068538;69;20144;-70
2022/04/22 06:58:47;;;;;;;;;;;;;;;10.88;47.39;91115.19;2055362;70;20054;-72
2022/04/22 07:01:12;;;;;;;;;;;;;;;11.00;48.24;91107.16;2055440;70;20049;-70
2022/04/22 07:03:38;;;;;;;;;;;;;;;11.13;46.61;91109.00;2055549;70;20562;-70
2022/04/22 07:06:04;;;;;;;;;;;;;;;10.23;50.75;91107.25;2055378;70;20502;-71
2022/04/22 07:08:29;;;;;;;;;;;;;;;10.15;51.22;91099.22;2068691;69;20096;-70
2022/04/22 07:10:55;;;;;;;;;;;;;;;10.83;48.84;91100.25;2055999;70;20160;-70
2022/04/22 07:13:21;;;;;;;;;;;;;;;10.94;48.78;91098.50;2056003;70;20078;-71
2022/04/22 07:15:48;;;;;;;;;;;;;;;11.08;47.91;91103.88;2055880;70;20093;-69
2022/04/22 07:18:14;;;;;;;;;;;;;;;10.75;48.19;91091.53;2055894;70;20082;-70
2022/04/22 07:20:40;;;;;;;;;;;;;;;10.97;47.43;91094.38;2055989;70;20065;-70
2022/04/22 07:23:05;;;;;;;;;;;;;;;11.01;46.71;91093.81;2055725;69;20078;-70
2022/04/22 07:25:31;;;;;;;;;;;;;;;10.97;47.83;91096.47;2068701;69;20058;-70
2022/04/22 07:27:58;;;;;;;;;;;;;;;11.32;45.92;91089.88;2068660;69;20050;-70
2022/04/22 07:30:25;;;;;;;;;;;;;;;11.49;44.77;91089.00;2055854;70;20062;-70
2022/04/22 07:32:50;;;;;;;;;;;;;;;11.86;45.68;91090.16;2055850;70;20478;-71
2022/04/22 07:35:16;;;;;;;;;;;;;;;11.16;47.67;91090.06;2055860;70;20053;-71
2022/04/22 07:37:42;;;;;;;;;;;;;;;11.19;46.06;91091.59;2055821;69;20119;-71
2022/04/22 07:40:08;;;;;;;;;;;;;;;11.93;45.13;91089.69;2055667;70;20505;-70
2022/04/22 07:42:34;;;;;;;;;;;;;;;12.21;43.21;91086.28;2055849;69;20559;-72
2022/04/22 07:47:47;;;;;;;;;;;;;;;12.21;42.84;91089.09;2055961;70;20082;-71
2022/04/22 07:50:13;;;;;;;;;;;;;;;11.66;43.50;91084.59;2068784;69;20165;-70
2022/04/22 07:52:38;;;;;;;;;;;;;;;11.45;44.44;91078.34;2055797;70;20057;-71
2022/04/22 07:55:04;;;;;;;;;;;;;;;11.63;44.24;91075.34;2068760;69;20050;-69
2022/04/22 07:57:30;;;;;;;;;;;;;;;12.29;43.19;91083.69;2055775;70;20062;-71
2022/04/22 07:59:56;;;;;;;;;;;;;;;12.44;43.12;91079.88;2055748;69;20402;-71
2022/04/22 08:02:22;;;;;;;;;;;;;;;12.15;44.24;91072.00;2055841;70;20117;-70
2022/04/22 08:04:47;;;;;;;;;;;;;;;12.37;44.28;91069.81;2055755;69;20046;-69
2022/04/22 08:07:15;;;;;;;;;;;;;;;12.59;44.17;91068.97;2055790;70;20149;-70
2022/04/22 08:09:41;;;;;;;;;;;;;;;12.55;44.27;91066.03;2068641;69;20051;-70
2022/04/22 08:12:08;;;;;;;;;;;;;;;12.95;42.41;91063.59;2055759;70;20140;-70
2022/04/22 08:14:33;;;;;;;;;;;;;;;12.63;43.66;91066.97;2055701;70;20493;-72
2022/04/22 08:16:59;;;;;;;;;;;;;;;12.95;43.03;91069.94;2055722;70;20055;-70
2022/04/22 08:19:25;;;;;;;;;;;;;;;13.24;42.30;91070.72;2055685;69;20157;-70
2022/04/22 08:21:50;;;;;;;;;;;;;;;12.84;43.23;91061.91;2055819;69;20111;-69
2022/04/22 08:24:15;;;;;;;;;;;;;;;13.32;42.68;91070.91;2055640;70;20154;-69
2022/04/22 08:26:41;;;;;;;;;;;;;;;12.91;42.70;91061.38;2055795;70;20044;-69
2022/04/22 08:29:06;;;;;;;;;;;;;;;12.80;43.20;91051.22;2055708;70;20185;-69
2022/04/22 08:31:32;;;;;;;;;;;;;;;13.32;41.52;91058.88;2055737;70;20475;-69
2022/04/22 08:33:57;;;;;;;;;;;;;;;13.52;41.59;91065.03;2055547;70;20057;-71
2022/04/22 08:36:23;;;;;;;;;;;;;;;13.37;41.83;91058.31;2055595;70;20150;-72
2022/04/22 08:38:49;;;;;;;;;;;;;;;13.60;42.02;91056.00;2055582;70;20049;-72
2022/04/22 08:41:17;;;;;;;;;;;;;;;13.58;40.75;91051.03;2055752;70;20636;-72
2022/04/22 08:43:42;;;;;;;;;;;;;;;14.08;40.37;91062.06;2068744;69;20437;-72
2022/04/22 08:49:58;;;;;;;;;;;;;;;14.30;39.77;91053.31;2055726;69;20045;-72
2022/04/22 08:51:38;;;;;;;;;;;;;;;13.89;40.20;91055.28;2055833;70;20145;-72
2022/04/22 08:54:07;;;;;;;;;;;;;;;13.69;40.59;91058.34;2055637;70;20500;-72
2022/04/22 08:56:34;;;;;;;;;;;;;;;13.55;40.95;91051.66;2068673;69;20047;-71
2022/04/22 08:59:00;;;;;;;;;;;;;;;13.65;41.42;91049.81;2055640;70;20060;-74
2022/04/22 09:01:26;;;;;;;;;;;;;;;13.83;40.32;91052.31;2055592;69;20097;-71
2022/04/22 09:03:51;;;;;;;;;;;;;;;13.90;40.83;91051.06;2055822;70;20085;-72
2022/04/22 09:06:18;;;;;;;;;;;;;;;13.95;39.81;91041.25;2055686;70;20053;-70
2022/04/22 09:08:44;;;;;;;;;;;;;;;13.50;39.58;91039.53;2055579;70;20414;-71
2022/04/22 09:11:09;;;;;;;;;;;;;;;14.30;38.23;91036.34;2055645;70;20046;-70
2022/04/22 09:13:35;;;;;;;;;;;;;;;14.70;38.27;91033.59;2068688;69;20142;-70
2022/04/22 09:16:01;;;;;;;;;;;;;;;14.45;38.98;91038.06;2055686;70;20435;-70
2022/04/22 09:18:26;;;;;;;;;;;;;;;14.19;39.50;91040.34;2055784;69;20477;-73
2022/04/22 09:20:56;;;;;;;;;;;;;;;14.05;40.02;91032.28;2055774;69;20046;-72
2022/04/22 09:23:32;;;;;;;;;;;;;;;14.70;39.22;91024.38;2055552;69;20149;-73
2022/04/22 09:25:58;;;;;;;;;;;;;;;14.82;38.59;91026.75;2055649;70;20051;-72
2022/04/22 09:28:23;;;;;;;;;;;;;;;14.80;39.77;91024.59;2055659;70;20066;-73
2022/04/22 09:31:02;;;;;;;;;;;;;;;15.11;38.49;91030.78;2055524;69;20504;-71
2022/04/22 09:33:35;;;;;;;;;;;;;;;15.16;38.25;91015.28;2055762;69;20165;-75
2022/04/22 09:44:22;;;;;;;;;;;;;;;15.15;37.59;91020.25;2055680;70;20119;-73
2022/04/22 09:46:47;;;;;;;;;;;;;;;15.06;38.45;91015.13;2055585;70;20046;-71
2022/04/22 09:49:14;;;;;;;;;;;;;;;15.47;38.28;91014.41;2055166;70;20058;-71
2022/04/22 09:51:39;;;;;;;;;;;;;;;15.89;37.33;91013.63;2055311;70;20070;-71
2022/04/22 09:54:09;;;;;;;;;;;;;;;15.62;36.22;91009.66;2055327;70;20070;-71
2022/04/22 09:56:35;;;;;;;;;;;;;;;15.48;37.11;91009.44;2055580;69;20473;-70
2022/04/22 09:59:19;;;;;;;;;;;;;;;15.15;37.81;90996.88;2055526;69;20056;-70
2022/04/22 10:01:44;;;;;;;;;;;;;;;14.99;36.96;90994.47;2068569;69;20054;-70
2022/04/22 10:04:10;;;;;;;;;;;;;;;15.56;36.76;90994.69;2055549;70;20050;-70
2022/04/22 10:06:36;;;;;;;;;;;;;;;15.80;36.54;91000.03;2055570;70;20173;-70
2022/04/22 10:09:02;;;;;;;;;;;;;;;15.85;35.75;90995.84;2055528;70;20091;-71
2022/04/22 10:11:29;;;;;;;;;;;;;;;16.18;35.41;90994.16;2068542;69;20119;-70
2022/04/22 10:13:55;;;;;;;;;;;;;;;15.96;34.42;90989.63;2055510;69;20046;-69
2022/04/22 10:16:21;;;;;;;;;;;;;;;15.60;35.31;90986.94;2055575;69;20062;-69
2022/04/22 10:18:47;;;;;;;;;;;;;;;16.35;34.75;90989.41;2055490;69;20394;-70
2022/04/22 10:21:14;;;;;;;;;;;;;;;16.36;34.62;90988.00;2055482;70;20074;-70
2022/04/22 10:23:40;;;;;;;;;;;;;;;15.64;36.40;90983.50;2055468;70;20133;-71
2022/04/22 10:26:05;;;;;;;;;;;;;;;16.37;35.21;90986.59;2055449;70;20128;-70
2022/04/22 10:28:31;;;;;;;;;;;;;;;15.64;36.51;90977.81;2055501;69;20050;-70
2022/04/22 10:31:00;;;;;;;;;;;;;;;16.00;35.62;90981.16;2065585;69;20050;-70
2022/04/22 10:33:27;;;;;;;;;;;;;;;16.46;35.14;90982.44;2068443;69;20169;-71
2022/04/22 10:35:59;;;;;;;;;;;;;;;16.18;35.77;90977.13;2055522;69;20051;-71
2022/04/22 10:38:26;;;;;;;;;;;;;;;16.23;35.62;90978.63;2055343;69;20070;-71
2022/04/22 10:40:51;;;;;;;;;;;;;;;16.26;35.39;90974.38;2055527;70;20050;-70
2022/04/22 10:43:17;;;;;;;;;;;;;;;16.27;36.66;90985.06;2055968;70;20133;-71
2022/04/22 10:48:30;;;;;;;;;;;;;;;16.03;37.60;90973.38;2055971;70;20056;-71
2022/04/22 10:50:56;;;;;;;;;;;;;;;16.26;36.05;90980.81;2055944;69;20137;-71
2022/04/22 10:53:23;;;;;;;;;;;;;;;16.60;35.63;90984.72;2055696;70;20512;-72
2022/04/22 10:55:49;;;;;;;;;;;;;;;16.59;36.29;90978.34;2068699;69;20483;-69
2022/04/22 10:58:14;;;;;;;;;;;;;;;16.69;35.89;90978.44;2055845;69;20054;-69
2022/04/22 11:00:46;;;;;;;;;;;;;;;16.68;36.63;90979.84;2055937;69;20500;-71
2022/04/22 11:03:20;;;;;;;;;;;;;;;16.69;37.04;90974.91;2055967;70;20162;-70
2022/04/22 11:05:46;;;;;;;;;;;;;;;16.70;36.54;90982.00;2068906;69;20070;-70
2022/04/22 11:08:20;;;;;;;;;;;;;;;17.39;35.71;90976.28;2068810;69;20421;-72
2022/04/22 11:10:48;;;;;;;;;;;;;;;17.47;35.63;90979.19;2068922;69;20078;-70
2022/04/22 11:13:32;;;;;;;;;;;;;;;17.82;35.26;90973.78;2055833;70;20143;-71
2022/04/22 11:15:58;;;;;;;;;;;;;;;18.17;34.19;90974.69;2055887;69;20057;-71
2022/04/22 11:18:23;;;;;;;;;;;;;;;18.26;34.28;90976.19;2055989;70;20473;-72
2022/04/22 11:20:58;;;;;;;;;;;;;;;17.84;35.02;90973.81;2055851;69;20053;-70
2022/04/22 11:23:23;;;;;;;;;;;;;;;17.82;33.75;90970.94;2055712;70;20477;-71
2022/04/22 11:25:51;;;;;;;;;;;;;;;17.72;33.90;90966.56;2068845;69;20054;-72
2022/04/22 11:28:17;;;;;;;;;;;;;;;18.54;33.12;90967.75;2055867;69;20154;-72
2022/04/22 11:30:43;;;;;;;;;;;;;;;18.00;33.29;90968.19;2055898;70;20147;-72
2022/04/22 11:33:16;;;;;;;;;;;;;;;18.28;32.90;90968.38;2068879;69;20133;-70
2022/04/22 11:35:41;;;;;;;;;;;;;;;18.39;32.19;90966.28;2055911;69;20054;-69
2022/04/22 11:38:08;;;;;;;;;;;;;;;17.84;31.18;90968.13;2068751;69;20484;-70
2022/04/22 11:40:40;;;;;;;;;;;;;;;18.63;31.93;90964.94;2055954;69;20146;-68
2022/04/22 11:43:10;;;;;;;;;;;;;;;18.76;30.76;90972.13;2055868;69;20587;-69
2022/04/22 11:45:36;;;;;;;;;;;;;;;19.15;31.92;90969.38;2068844;69;20138;-69
2022/04/22 11:48:09;;;;;;;;;;;;;;;18.86;31.21;90960.75;2055885;69;20051;-72
2022/04/22 11:50:41;;;;;;;;;;;;;;;18.66;31.22;90960.69;2055824;70;20058;-72
2022/04/22 11:53:12;;;;;;;;;;;;;;;18.94;29.97;90963.63;2055634;70;20050;-71
2022/04/22 11:55:38;;;;;;;;;;;;;;;19.54;30.55;90950.84;2055876;69;20053;-72
2022/04/22 11:58:03;;;;;;;;;;;;;;;19.54;29.91;90956.56;2055159;70;20058;-71
2022/04/22 12:05:57;;;;;;;;;;;;;;;21.24;29.09;90958.94;2055896;70;20428;-71
2022/04/22 12:08:23;;;;;;;;;;;;;;;21.09;28.63;90954.75;2068588;69;20046;-71
2022/04/22 12:10:50;;;;;;;;;;;;;;;19.95;29.92;90944.44;2055763;70;20054;-71
2022/04/22 12:13:16;;;;;;;;;;;;;;;21.03;29.82;90952.66;2055707;69;20057;-69
2022/04/22 12:15:48;;;;;;;;;;;;;;;21.16;28.75;90953.25;2055788;69;20058;-71
2022/04/22 12:18:30;;;;;;;;;;;;;;;20.43;29.41;90946.44;2055771;70;20047;-71
2022/04/22 12:20:56;;;;;;;;;;;;;;;19.68;30.16;90946.59;2055683;69;20097;-69
2022/04/22 12:23:22;;;;;;;;;;;;;;;20.76;29.31;90949.22;2055693;70;20062;-68
2022/04/22 12:25:57;;;;;;;;;;;;;;;19.53;29.82;90952.28;2055848;70;20050;-70
2022/04/22 12:28:23;;;;;;;;;;;;;;;19.08;30.47;90945.13;2055606;69;20046;-69
2022/04/22 12:30:48;;;;;;;;;;;;;;;19.57;29.98;90943.03;2055113;70;20081;-69
2022/04/22 12:33:17;;;;;;;;;;;;;;;19.79;29.96;90940.19;2068531;69;20211;-70
2022/04/22 12:35:45;;;;;;;;;;;;;;;19.38;29.99;90938.72;2055560;70;20419;-69
2022/04/22 12:38:11;;;;;;;;;;;;;;;19.28;30.71;90936.56;2068506;69;20054;-69
2022/04/22 12:40:47;;;;;;;;;;;;;;;19.18;30.88;90951.56;2055539;69;20139;-67
2022/04/22 12:43:31;;;;;;;;;;;;;;;18.59;31.62;90944.97;2055551;70;20077;-67
2022/04/22 12:52:10;;;;;;;;;;;;;;;19.32;30.25;90947.28;2055649;70;20053;-70
2022/04/22 12:54:37;;;;;;;;;;;;;;;19.77;30.23;90950.88;2055189;70;20082;-70
2022/04/22 12:57:05;;;;;;;;;;;;;;;19.52;29.99;90945.16;2055423;69;20558;-73
2022/04/22 12:59:41;;;;;;;;;;;;;;;20.90;28.72;90934.84;2055509;70;20047;-69
2022/04/22 13:02:07;;;;;;;;;;;;;;;21.71;27.46;90944.31;2055586;70;20057;-68
2022/04/22 13:04:33;;;;;;;;;;;;;;;23.04;26.21;90941.50;2055380;70;20077;-68
2022/04/22 13:07:08;;;;;;;;;;;;;;;22.71;26.62;90949.06;2055412;70;20430;-70
2022/04/22 13:09:33;;;;;;;;;;;;;;;23.07;25.90;90942.19;2055407;69;20051;-69
2022/04/22 13:11:59;;;;;;;;;;;;;;;23.88;24.49;90946.06;2055452;70;20049;-70
2022/04/22 13:14:24;;;;;;;;;;;;;;;24.91;22.75;90942.75;2055508;69;20065;-69
2022/04/22 13:16:50;;;;;;;;;;;;;;;26.29;22.34;90952.66;2055559;70;20080;-69
2022/04/22 13:19:15;;;;;;;;;;;;;;;26.20;23.20;90948.56;2055621;70;20066;-70
2022/04/22 13:21:41;;;;;;;;;;;;;;;26.47;22.67;90940.66;2055525;69;20050;-70
2022/04/22 13:24:07;;;;;;;;;;;;;;;25.19;22.92;90937.88;2055306;70;20447;-69
2022/04/22 13:26:33;;;;;;;;;;;;;;;25.92;22.85;90933.38;2055440;70;20038;-68
2022/04/22 13:28:59;;;;;;;;;;;;;;;26.57;21.35;90931.75;2068608;69;20057;-69
2022/04/22 13:31:25;;;;;;;;;;;;;;;27.83;21.23;90932.50;2055509;70;20514;-70
2022/04/22 13:33:50;;;;;;;;;;;;;;;25.87;22.59;90931.34;2055497;70;20093;-70
2022/04/22 13:36:16;;;;;;;;;;;;;;;25.59;23.40;90927.66;2055486;70;20070;-69
2022/04/22 13:38:43;;;;;;;;;;;;;;;24.74;23.91;90933.75;2055341;69;20054;-68
2022/04/22 13:41:09;;;;;;;;;;;;;;;26.91;21.55;90931.56;2068478;69;20058;-69
2022/04/22 13:43:35;;;;;;;;;;;;;;;29.18;19.89;90943.16;2055538;70;20061;-69
2022/04/22 13:54:15;;;;;;;;;;;;;;;26.72;21.65;90932.06;2055386;70;20039;-69
2022/04/22 13:56:40;;;;;;;;;;;;;;;27.68;21.25;90934.41;2055471;69;20141;-69
2022/04/22 13:59:06;;;;;;;;;;;;;;;30.47;19.11;90930.25;2055448;70;20062;-70
2022/04/22 14:01:31;;;;;;;;;;;;;;;29.45;19.10;90942.19;2055483;70;20066;-71